sensor_id;sensor_type;location;lat;lon;timestamp;pressure;altitude;pressure_sealevel;temperature;humidity
56831;BME280;42713;42.676;23.352;2023-05-03T00:00:07;95100.69;;;15.91;33.25
56831;BME280;42713;42.676;23.352;2023-05-03T00:02:37;95090.13;;;15.91;33.71
56831;BME280;42713;42.676;23.352;2023-05-03T00:05:05;95088.00;;;15.88;33.71
56831;BME280;42713;42.676;23.352;2023-05-03T00:07:31;95096.44;;;15.90;33.22
56831;BME280;42713;42.676;23.352;2023-05-03T00:09:57;95099.88;;;15.75;33.37
56831;BME280;42713;42.676;23.352;2023-05-03T00:12:23;95095.38;;;15.70;33.39
56831;BME280;42713;42.676;23.352;2023-05-03T00:14:49;95097.75;;;15.67;34.11
56831;BME280;42713;42.676;23.352;2023-05-03T00:17:14;95094.34;;;15.66;34.11
56831;BME280;42713;42.676;23.352;2023-05-03T00:19:40;95089.31;;;15.65;34.33
56831;BME280;42713;42.676;23.352;2023-05-03T00:22:06;95097.78;;;15.62;34.07
56831;BME280;42713;42.676;23.352;2023-05-03T00:24:33;95094.59;;;15.60;34.45
56831;BME280;42713;42.676;23.352;2023-05-03T00:26:59;95100.16;;;15.53;34.55
56831;BME280;42713;42.676;23.352;2023-05-03T00:29:25;95103.06;;;15.41;35.02
56831;BME280;42713;42.676;23.352;2023-05-03T00:31:50;95096.97;;;15.40;35.60
56831;BME280;42713;42.676;23.352;2023-05-03T00:34:16;95103.31;;;15.45;36.13
56831;BME280;42713;42.676;23.352;2023-05-03T00:36:42;95101.47;;;15.40;35.15
56831;BME280;42713;42.676;23.352;2023-05-03T00:39:07;95102.78;;;15.37;35.55
56831;BME280;42713;42.676;23.352;2023-05-03T00:41:34;95092.75;;;15.34;35.12
56831;BME280;42713;42.676;23.352;2023-05-03T00:44:00;95101.19;;;15.31;35.63
56831;BME280;42713;42.676;23.352;2023-05-03T00:46:25;95092.22;;;15.27;35.22
56831;BME280;42713;42.676;23.352;2023-05-03T00:48:51;95102.47;;;15.23;35.55
56831;BME280;42713;42.676;23.352;2023-05-03T00:51:18;95097.75;;;15.20;36.16
56831;BME280;42713;42.676;23.352;2023-05-03T00:53:45;95093.50;;;15.14;35.16
56831;BME280;42713;42.676;23.352;2023-05-03T00:56:10;95097.97;;;15.03;35.28
56831;BME280;42713;42.676;23.352;2023-05-03T00:58:36;95095.34;;;15.03;35.13
56831;BME280;42713;42.676;23.352;2023-05-03T01:01:05;95100.88;;;15.02;34.93
56831;BME280;42713;42.676;23.352;2023-05-03T01:03:32;95103.75;;;14.90;35.33
56831;BME280;42713;42.676;23.352;2023-05-03T01:06:11;95104.28;;;14.87;36.00
56831;BME280;42713;42.676;23.352;2023-05-03T01:08:46;95097.13;;;14.77;35.42
56831;BME280;42713;42.676;23.352;2023-05-03T01:11:26;95086.56;;;14.77;35.76
56831;BME280;42713;42.676;23.352;2023-05-03T01:16:26;95088.38;;;14.71;36.07
56831;BME280;42713;42.676;23.352;2023-05-03T01:18:54;95088.94;;;14.68;36.07
56831;BME280;42713;42.676;23.352;2023-05-03T01:21:22;95083.13;;;14.71;35.56
56831;BME280;42713;42.676;23.352;2023-05-03T01:24:07;95082.06;;;14.72;36.17
56831;BME280;42713;42.676;23.352;2023-05-03T01:26:36;95085.50;;;14.73;36.59
56831;BME280;42713;42.676;23.352;2023-05-03T01:29:01;95092.63;;;14.72;35.96
56831;BME280;42713;42.676;23.352;2023-05-03T01:31:45;95090.50;;;14.69;35.89
56831;BME280;42713;42.676;23.352;2023-05-03T01:36:42;95093.94;;;14.70;36.08
56831;BME280;42713;42.676;23.352;2023-05-03T04:00:12;95103.38;;;13.69;39.33
56831;BME280;42713;42.676;23.352;2023-05-03T04:02:39;95110.69;;;13.62;39.95
56831;BME280;42713;42.676;23.352;2023-05-03T04:05:05;95105.69;;;13.61;39.95
56831;BME280;42713;42.676;23.352;2023-05-03T04:07:32;95116.66;;;13.52;39.86
56831;BME280;42713;42.676;23.352;2023-05-03T04:09:59;95110.59;;;13.47;40.62
56831;BME280;42713;42.676;23.352;2023-05-03T04:12:24;95124.25;;;13.49;40.25
56831;BME280;42713;42.676;23.352;2023-05-03T04:14:50;95119.53;;;13.46;40.30
56831;BME280;42713;42.676;23.352;2023-05-03T04:17:15;95131.63;;;13.47;40.15
56831;BME280;42713;42.676;23.352;2023-05-03T04:19:41;95127.41;;;13.46;39.80
56831;BME280;42713;42.676;23.352;2023-05-03T04:22:07;95129.19;;;13.40;40.25
56831;BME280;42713;42.676;23.352;2023-05-03T04:24:33;95131.03;;;13.39;40.65
56831;BME280;42713;42.676;23.352;2023-05-03T04:26:59;95128.94;;;13.42;40.77
56831;BME280;42713;42.676;23.352;2023-05-03T04:29:28;95136.50;;;13.38;40.31
56831;BME280;42713;42.676;23.352;2023-05-03T04:31:54;95140.78;;;13.39;40.56
56831;BME280;42713;42.676;23.352;2023-05-03T04:34:19;95145.19;;;13.38;41.46
56831;BME280;42713;42.676;23.352;2023-05-03T04:36:46;95136.78;;;13.36;42.29
56831;BME280;42713;42.676;23.352;2023-05-03T04:39:11;95144.66;;;13.36;42.13
56831;BME280;42713;42.676;23.352;2023-05-03T04:41:38;95151.41;;;13.27;43.44
56831;BME280;42713;42.676;23.352;2023-05-03T04:44:04;95150.56;;;13.21;42.81
56831;BME280;42713;42.676;23.352;2023-05-03T04:46:30;95159.00;;;13.23;43.53
56831;BME280;42713;42.676;23.352;2023-05-03T04:48:55;95165.59;;;13.26;44.42
56831;BME280;42713;42.676;23.352;2023-05-03T04:51:22;95161.38;;;13.25;44.17
56831;BME280;42713;42.676;23.352;2023-05-03T04:53:48;95165.00;;;13.19;43.05
56831;BME280;42713;42.676;23.352;2023-05-03T04:56:15;95171.81;;;13.15;43.32
56831;BME280;42713;42.676;23.352;2023-05-03T04:58:40;95175.19;;;13.10;43.63
56831;BME280;42713;42.676;23.352;2023-05-03T05:01:07;95178.53;;;13.05;43.83
56831;BME280;42713;42.676;23.352;2023-05-03T05:03:32;95187.28;;;13.11;44.18
56831;BME280;42713;42.676;23.352;2023-05-03T05:05:58;95186.72;;;13.09;43.34
56831;BME280;42713;42.676;23.352;2023-05-03T05:08:23;95191.91;;;13.04;44.02
56831;BME280;42713;42.676;23.352;2023-05-03T05:10:48;95194.03;;;13.02;44.70
56831;BME280;42713;42.676;23.352;2023-05-03T05:13:14;95185.03;;;12.98;45.12
56831;BME280;42713;42.676;23.352;2023-05-03T05:15:39;95190.22;;;12.92;45.47
56831;BME280;42713;42.676;23.352;2023-05-03T05:18:05;95193.66;;;12.93;45.39
56831;BME280;42713;42.676;23.352;2023-05-03T05:20:31;95188.56;;;12.86;45.15
56831;BME280;42713;42.676;23.352;2023-05-03T05:22:56;95200.38;;;12.84;45.70
56831;BME280;42713;42.676;23.352;2023-05-03T05:25:22;95195.09;;;12.84;45.07
56831;BME280;42713;42.676;23.352;2023-05-03T05:27:47;95202.53;;;12.87;45.80
56831;BME280;42713;42.676;23.352;2023-05-03T05:30:13;95202.56;;;12.92;46.25
56831;BME280;42713;42.676;23.352;2023-05-03T05:32:39;95203.44;;;12.98;45.58
56831;BME280;42713;42.676;23.352;2023-05-03T05:35:05;95212.94;;;13.04;46.32
56831;BME280;42713;42.676;23.352;2023-05-03T05:37:30;95210.69;;;13.13;45.58
56831;BME280;42713;42.676;23.352;2023-05-03T05:39:56;95212.84;;;13.16;45.57
56831;BME280;42713;42.676;23.352;2023-05-03T05:42:21;95209.78;;;13.24;47.24
56831;BME280;42713;42.676;23.352;2023-05-03T05:44:47;95202.97;;;13.28;46.91
56831;BME280;42713;42.676;23.352;2023-05-03T05:47:12;95212.50;;;13.34;45.83
56831;BME280;42713;42.676;23.352;2023-05-03T05:49:37;95204.91;;;13.38;45.56
56831;BME280;42713;42.676;23.352;2023-05-03T05:52:03;95199.72;;;13.43;46.29
56831;BME280;42713;42.676;23.352;2023-05-03T05:54:29;95200.06;;;13.47;45.59
56831;BME280;42713;42.676;23.352;2023-05-03T05:56:54;95204.25;;;13.48;46.08
56831;BME280;42713;42.676;23.352;2023-05-03T05:59:19;95202.91;;;13.45;46.20
56831;BME280;42713;42.676;23.352;2023-05-03T06:01:45;95200.06;;;13.47;45.52
56831;BME280;42713;42.676;23.352;2023-05-03T06:04:14;95197.41;;;13.47;44.85
56831;BME280;42713;42.676;23.352;2023-05-03T06:06:40;95199.50;;;13.45;45.38
56831;BME280;42713;42.676;23.352;2023-05-03T06:09:06;95199.09;;;13.36;44.70
56831;BME280;42713;42.676;23.352;2023-05-03T06:11:33;95198.06;;;13.37;46.09
56831;BME280;42713;42.676;23.352;2023-05-03T06:13:58;95193.84;;;13.36;45.87
56831;BME280;42713;42.676;23.352;2023-05-03T06:16:24;95187.69;;;13.25;44.91
56831;BME280;42713;42.676;23.352;2023-05-03T06:18:50;95184.50;;;13.23;45.67
56831;BME280;42713;42.676;23.352;2023-05-03T06:21:16;95191.63;;;13.22;46.23
56831;BME280;42713;42.676;23.352;2023-05-03T06:23:41;95184.25;;;13.24;45.83
56831;BME280;42713;42.676;23.352;2023-05-03T06:26:07;95189.03;;;13.28;45.84
56831;BME280;42713;42.676;23.352;2023-05-03T06:28:34;95191.94;;;13.31;46.25
56831;BME280;42713;42.676;23.352;2023-05-03T06:31:00;95192.25;;;13.35;45.64
56831;BME280;42713;42.676;23.352;2023-05-03T06:33:26;95187.53;;;13.37;45.66
56831;BME280;42713;42.676;23.352;2023-05-03T06:35:51;95183.66;;;13.39;47.02
56831;BME280;42713;42.676;23.352;2023-05-03T06:38:17;95186.09;;;13.46;46.31
56831;BME280;42713;42.676;23.352;2023-05-03T06:40:44;95182.34;;;13.42;45.57
56831;BME280;42713;42.676;23.352;2023-05-03T06:43:09;95177.41;;;13.46;46.03
56831;BME280;42713;42.676;23.352;2023-05-03T06:45:35;95179.28;;;13.50;46.30
56831;BME280;42713;42.676;23.352;2023-05-03T06:48:00;95172.47;;;13.54;45.86
56831;BME280;42713;42.676;23.352;2023-05-03T06:50:26;95171.91;;;13.52;45.76
56831;BME280;42713;42.676;23.352;2023-05-03T06:52:52;95169.38;;;13.63;46.94
56831;BME280;42713;42.676;23.352;2023-05-03T06:55:18;95162.59;;;13.67;45.21
56831;BME280;42713;42.676;23.352;2023-05-03T06:57:44;95156.78;;;13.65;45.53
56831;BME280;42713;42.676;23.352;2023-05-03T07:00:12;95157.25;;;13.62;44.48
56831;BME280;42713;42.676;23.352;2023-05-03T07:02:37;95157.25;;;13.62;44.74
56831;BME280;42713;42.676;23.352;2023-05-03T07:05:03;95143.31;;;13.61;44.89
56831;BME280;42713;42.676;23.352;2023-05-03T07:07:29;95144.66;;;13.64;44.56
56831;BME280;42713;42.676;23.352;2023-05-03T07:09:55;95148.09;;;13.64;45.22
56831;BME280;42713;42.676;23.352;2023-05-03T07:12:20;95149.91;;;13.64;45.52
56831;BME280;42713;42.676;23.352;2023-05-03T07:14:51;95160.22;;;13.65;45.28
56831;BME280;42713;42.676;23.352;2023-05-03T07:17:19;95171.50;;;13.61;45.25
56831;BME280;42713;42.676;23.352;2023-05-03T07:19:46;95165.16;;;13.62;45.12
56831;BME280;42713;42.676;23.352;2023-05-03T07:22:13;95153.66;;;13.68;45.45
56831;BME280;42713;42.676;23.352;2023-05-03T07:24:38;95148.19;;;13.75;45.46
56831;BME280;42713;42.676;23.352;2023-05-03T07:27:04;95149.00;;;13.80;46.13
56831;BME280;42713;42.676;23.352;2023-05-03T07:29:29;95155.13;;;13.91;46.07
56831;BME280;42713;42.676;23.352;2023-05-03T07:31:55;95157.78;;;13.96;46.13
56831;BME280;42713;42.676;23.352;2023-05-03T07:34:20;95164.72;;;14.03;45.41
56831;BME280;42713;42.676;23.352;2023-05-03T07:36:48;95161.56;;;14.06;45.58
56831;BME280;42713;42.676;23.352;2023-05-03T07:39:14;95159.22;;;14.09;47.59
56831;BME280;42713;42.676;23.352;2023-05-03T07:41:40;95149.72;;;14.08;45.75
56831;BME280;42713;42.676;23.352;2023-05-03T07:44:05;95142.91;;;14.12;45.55
56831;BME280;42713;42.676;23.352;2023-05-03T07:46:32;95147.66;;;14.15;45.80
56831;BME280;42713;42.676;23.352;2023-05-03T07:49:00;95145.84;;;14.21;45.28
56831;BME280;42713;42.676;23.352;2023-05-03T07:51:26;95148.00;;;14.24;45.62
56831;BME280;42713;42.676;23.352;2023-05-03T07:53:53;95153.81;;;14.31;45.53
56831;BME280;42713;42.676;23.352;2023-05-03T07:56:19;95158.59;;;14.35;45.82
56831;BME280;42713;42.676;23.352;2023-05-03T07:58:45;95154.59;;;14.32;45.76
56831;BME280;42713;42.676;23.352;2023-05-03T08:01:11;95155.19;;;14.39;45.68
56831;BME280;42713;42.676;23.352;2023-05-03T08:03:39;95158.09;;;14.43;46.40
56831;BME280;42713;42.676;23.352;2023-05-03T08:06:04;95161.56;;;14.48;46.66
56831;BME280;42713;42.676;23.352;2023-05-03T08:08:30;95157.41;;;14.58;47.48
56831;BME280;42713;42.676;23.352;2023-05-03T08:10:56;95165.03;;;14.64;47.53
56831;BME280;42713;42.676;23.352;2023-05-03T08:13:21;95163.78;;;14.67;48.43
56831;BME280;42713;42.676;23.352;2023-05-03T08:15:48;95165.13;;;14.75;47.78
56831;BME280;42713;42.676;23.352;2023-05-03T08:18:13;95164.13;;;14.86;47.56
56831;BME280;42713;42.676;23.352;2023-05-03T08:20:39;95161.25;;;14.93;48.17
56831;BME280;42713;42.676;23.352;2023-05-03T08:23:04;95151.78;;;15.02;47.41
56831;BME280;42713;42.676;23.352;2023-05-03T08:25:30;95151.81;;;15.13;46.31
56831;BME280;42713;42.676;23.352;2023-05-03T08:27:56;95153.41;;;15.19;46.54
56831;BME280;42713;42.676;23.352;2023-05-03T08:30:22;95147.63;;;15.22;47.45
56831;BME280;42713;42.676;23.352;2023-05-03T08:32:48;95160.81;;;15.32;47.57
56831;BME280;42713;42.676;23.352;2023-05-03T08:35:14;95150.81;;;15.45;48.02
56831;BME280;42713;42.676;23.352;2023-05-03T08:37:44;95164.03;;;15.60;47.06
56831;BME280;42713;42.676;23.352;2023-05-03T08:40:10;95173.28;;;15.73;46.80
56831;BME280;42713;42.676;23.352;2023-05-03T08:42:44;95166.69;;;15.81;45.99
56831;BME280;42713;42.676;23.352;2023-05-03T08:45:13;95151.38;;;15.88;46.18
56831;BME280;42713;42.676;23.352;2023-05-03T08:47:43;95156.41;;;15.95;45.81
56831;BME280;42713;42.676;23.352;2023-05-03T08:50:13;95144.28;;;15.99;45.69
56831;BME280;42713;42.676;23.352;2023-05-03T08:52:40;95148.75;;;15.98;46.08
56831;BME280;42713;42.676;23.352;2023-05-03T08:55:07;95155.88;;;15.98;44.60
56831;BME280;42713;42.676;23.352;2023-05-03T08:57:34;95168.59;;;16.01;44.36
56831;BME280;42713;42.676;23.352;2023-05-03T09:00:00;95159.31;;;15.98;45.34
56831;BME280;42713;42.676;23.352;2023-05-03T09:02:27;95161.72;;;16.00;45.81
56831;BME280;42713;42.676;23.352;2023-05-03T09:04:53;95160.38;;;16.02;46.23
56831;BME280;42713;42.676;23.352;2023-05-03T09:07:19;95166.44;;;16.13;46.22
56831;BME280;42713;42.676;23.352;2023-05-03T09:09:45;95160.88;;;16.20;45.04
56831;BME280;42713;42.676;23.352;2023-05-03T09:12:11;95154.00;;;16.24;45.12
56831;BME280;42713;42.676;23.352;2023-05-03T09:14:44;95156.13;;;16.32;45.29
56831;BME280;42713;42.676;23.352;2023-05-03T09:17:14;95140.22;;;16.38;46.02
56831;BME280;42713;42.676;23.352;2023-05-03T09:19:54;95141.78;;;16.49;45.94
56831;BME280;42713;42.676;23.352;2023-05-03T09:22:26;95137.53;;;16.58;45.42
56831;BME280;42713;42.676;23.352;2023-05-03T09:24:53;95139.88;;;16.65;45.06
56831;BME280;42713;42.676;23.352;2023-05-03T09:27:20;95131.41;;;16.68;45.58
56831;BME280;42713;42.676;23.352;2023-05-03T09:29:46;95126.34;;;16.77;46.48
56831;BME280;42713;42.676;23.352;2023-05-03T09:32:12;95133.41;;;16.92;46.03
56831;BME280;42713;42.676;23.352;2023-05-03T09:34:38;95129.44;;;17.00;45.38
56831;BME280;42713;42.676;23.352;2023-05-03T09:37:03;95126.22;;;17.08;45.39
56831;BME280;42713;42.676;23.352;2023-05-03T09:39:29;95111.09;;;17.19;45.45
56831;BME280;42713;42.676;23.352;2023-05-03T09:41:55;95112.09;;;17.28;44.00
56831;BME280;42713;42.676;23.352;2023-05-03T09:44:46;95102.75;;;17.36;45.81
56831;BME280;42713;42.676;23.352;2023-05-03T09:47:13;95095.06;;;17.39;45.02
56831;BME280;42713;42.676;23.352;2023-05-03T09:49:39;95098.69;;;17.49;44.03
56831;BME280;42713;42.676;23.352;2023-05-03T09:52:05;95109.28;;;17.49;42.82
56831;BME280;42713;42.676;23.352;2023-05-03T09:54:32;95097.91;;;17.53;43.78
56831;BME280;42713;42.676;23.352;2023-05-03T09:57:00;95097.00;;;17.63;44.71
56831;BME280;42713;42.676;23.352;2023-05-03T09:59:27;95102.75;;;17.76;44.60
56831;BME280;42713;42.676;23.352;2023-05-03T10:01:56;95090.47;;;17.85;43.90
56831;BME280;42713;42.676;23.352;2023-05-03T10:04:25;95091.69;;;17.98;45.10
56831;BME280;42713;42.676;23.352;2023-05-03T10:06:53;95088.16;;;18.08;43.75
56831;BME280;42713;42.676;23.352;2023-05-03T10:09:42;95086.53;;;18.12;42.49
56831;BME280;42713;42.676;23.352;2023-05-03T10:12:10;95086.75;;;18.15;42.55
56831;BME280;42713;42.676;23.352;2023-05-03T10:14:40;95096.28;;;18.16;42.27
56831;BME280;42713;42.676;23.352;2023-05-03T10:17:11;95097.59;;;18.19;42.99
56831;BME280;42713;42.676;23.352;2023-05-03T10:19:51;95078.25;;;18.18;42.63
56831;BME280;42713;42.676;23.352;2023-05-03T10:22:20;95075.81;;;18.22;43.61
56831;BME280;42713;42.676;23.352;2023-05-03T10:30:39;95059.28;;;18.30;42.46
56831;BME280;42713;42.676;23.352;2023-05-03T10:35:39;95036.44;;;18.34;42.01
56831;BME280;42713;42.676;23.352;2023-05-03T10:38:15;95048.06;;;18.39;42.59
56831;BME280;42713;42.676;23.352;2023-05-03T10:40:42;95050.91;;;18.42;41.71
56831;BME280;42713;42.676;23.352;2023-05-03T10:46:03;95037.31;;;18.49;42.04
56831;BME280;42713;42.676;23.352;2023-05-03T10:48:33;95038.69;;;18.46;42.07
56831;BME280;42713;42.676;23.352;2023-05-03T10:51:30;95034.31;;;18.56;41.85
56831;BME280;42713;42.676;23.352;2023-05-03T10:53:58;95033.53;;;18.55;41.90
56831;BME280;42713;42.676;23.352;2023-05-03T10:56:23;95043.44;;;18.49;41.68
56831;BME280;42713;42.676;23.352;2023-05-03T10:58:49;95043.69;;;18.48;41.65
56831;BME280;42713;42.676;23.352;2023-05-03T11:01:17;95042.47;;;18.40;42.27
56831;BME280;42713;42.676;23.352;2023-05-03T11:08:52;95030.28;;;18.39;42.75
56831;BME280;42713;42.676;23.352;2023-05-03T11:11:18;95031.66;;;18.37;42.63
56831;BME280;42713;42.676;23.352;2023-05-03T11:13:43;95031.66;;;18.37;43.16
56831;BME280;42713;42.676;23.352;2023-05-03T11:16:08;95020.69;;;18.43;43.04
56831;BME280;42713;42.676;23.352;2023-05-03T11:18:36;95015.59;;;18.47;41.54
56831;BME280;42713;42.676;23.352;2023-05-03T11:21:01;95021.34;;;18.54;41.90
56831;BME280;42713;42.676;23.352;2023-05-03T11:23:28;95025.28;;;18.57;42.33
56831;BME280;42713;42.676;23.352;2023-05-03T11:25:54;95018.34;;;18.61;42.42
56831;BME280;42713;42.676;23.352;2023-05-03T11:28:22;95011.91;;;18.67;42.67
56831;BME280;42713;42.676;23.352;2023-05-03T11:30:48;94996.53;;;18.64;42.73
56831;BME280;42713;42.676;23.352;2023-05-03T11:33:15;95006.66;;;18.62;42.71
56831;BME280;42713;42.676;23.352;2023-05-03T11:35:40;95025.22;;;18.62;42.22
56831;BME280;42713;42.676;23.352;2023-05-03T11:38:07;95025.94;;;18.67;42.57
56831;BME280;42713;42.676;23.352;2023-05-03T11:40:32;95019.22;;;18.75;42.79
56831;BME280;42713;42.676;23.352;2023-05-03T11:42:58;95014.63;;;18.81;42.88
56831;BME280;42713;42.676;23.352;2023-05-03T11:45:28;95013.19;;;18.89;42.52
56831;BME280;42713;42.676;23.352;2023-05-03T11:47:55;94996.34;;;18.98;42.22
56831;BME280;42713;42.676;23.352;2023-05-03T11:53:25;94985.28;;;19.10;42.01
56831;BME280;42713;42.676;23.352;2023-05-03T11:55:52;94989.81;;;19.10;41.89
56831;BME280;42713;42.676;23.352;2023-05-03T11:58:23;95001.44;;;19.14;41.71
56831;BME280;42713;42.676;23.352;2023-05-03T12:00:55;95004.00;;;19.19;41.55
56831;BME280;42713;42.676;23.352;2023-05-03T12:05:50;94999.31;;;19.30;41.76
56831;BME280;42713;42.676;23.352;2023-05-03T12:08:17;94976.25;;;19.44;41.40
56831;BME280;42713;42.676;23.352;2023-05-03T12:10:44;94972.91;;;19.53;41.10
56831;BME280;42713;42.676;23.352;2023-05-03T12:13:10;94987.00;;;19.53;40.77
56831;BME280;42713;42.676;23.352;2023-05-03T12:15:38;94992.88;;;19.50;40.77
56831;BME280;42713;42.676;23.352;2023-05-03T12:18:09;94991.81;;;19.51;40.59
56831;BME280;42713;42.676;23.352;2023-05-03T12:20:36;94986.09;;;19.44;40.66
56831;BME280;42713;42.676;23.352;2023-05-03T12:23:04;94987.03;;;19.34;40.69
56831;BME280;42713;42.676;23.352;2023-05-03T12:25:32;94979.16;;;19.29;41.21
56831;BME280;42713;42.676;23.352;2023-05-03T12:28:00;94971.63;;;19.17;41.40
56831;BME280;42713;42.676;23.352;2023-05-03T12:30:27;94984.19;;;19.11;41.75
56831;BME280;42713;42.676;23.352;2023-05-03T12:32:53;94979.66;;;18.98;41.52
56831;BME280;42713;42.676;23.352;2023-05-03T12:35:20;94994.63;;;18.89;41.53
56831;BME280;42713;42.676;23.352;2023-05-03T12:37:47;94987.06;;;18.77;42.26
56831;BME280;42713;42.676;23.352;2023-05-03T12:40:14;94986.00;;;18.59;42.49
56831;BME280;42713;42.676;23.352;2023-05-03T12:42:41;94987.22;;;18.47;42.92
56831;BME280;42713;42.676;23.352;2023-05-03T12:45:07;94982.81;;;18.38;43.17
56831;BME280;42713;42.676;23.352;2023-05-03T12:47:33;94984.06;;;18.26;43.42
56831;BME280;42713;42.676;23.352;2023-05-03T12:49:59;94981.53;;;18.16;43.87
56831;BME280;42713;42.676;23.352;2023-05-03T12:52:25;94972.03;;;18.10;44.13
56831;BME280;42713;42.676;23.352;2023-05-03T12:54:51;94982.41;;;18.06;44.29
56831;BME280;42713;42.676;23.352;2023-05-03T12:57:16;94973.50;;;17.97;44.98
56831;BME280;42713;42.676;23.352;2023-05-03T12:59:42;94973.59;;;17.86;45.01
56831;BME280;42713;42.676;23.352;2023-05-03T13:02:09;94973.38;;;17.83;45.28
56831;BME280;42713;42.676;23.352;2023-05-03T13:04:35;94970.06;;;17.72;46.61
56831;BME280;42713;42.676;23.352;2023-05-03T13:07:01;94967.66;;;17.70;47.32
56831;BME280;42713;42.676;23.352;2023-05-03T13:09:27;94976.47;;;17.66;47.36
56831;BME280;42713;42.676;23.352;2023-05-03T13:11:52;94974.13;;;17.59;48.06
56831;BME280;42713;42.676;23.352;2023-05-03T13:14:19;94982.06;;;17.59;47.86
56831;BME280;42713;42.676;23.352;2023-05-03T13:16:45;94986.38;;;17.55;48.62
56831;BME280;42713;42.676;23.352;2023-05-03T13:19:11;94986.94;;;17.52;48.70
56831;BME280;42713;42.676;23.352;2023-05-03T13:21:37;94984.66;;;17.40;49.44
56831;BME280;42713;42.676;23.352;2023-05-03T13:24:03;94993.44;;;17.35;48.81
56831;BME280;42713;42.676;23.352;2023-05-03T13:26:28;94996.38;;;17.34;49.11
56831;BME280;42713;42.676;23.352;2023-05-03T13:28:54;94992.47;;;17.26;48.31
56831;BME280;42713;42.676;23.352;2023-05-03T13:31:20;94990.34;;;17.23;48.66
56831;BME280;42713;42.676;23.352;2023-05-03T13:33:48;94998.34;;;17.18;49.01
56831;BME280;42713;42.676;23.352;2023-05-03T13:36:24;95007.38;;;17.11;51.01
56831;BME280;42713;42.676;23.352;2023-05-03T13:38:50;95007.19;;;17.03;52.66
56831;BME280;42713;42.676;23.352;2023-05-03T13:41:17;95006.44;;;16.92;53.90
56831;BME280;42713;42.676;23.352;2023-05-03T13:43:43;95000.44;;;16.81;55.03
56831;BME280;42713;42.676;23.352;2023-05-03T13:46:08;95008.13;;;16.77;54.89
56831;BME280;42713;42.676;23.352;2023-05-03T13:48:34;95006.28;;;16.73;55.48
56831;BME280;42713;42.676;23.352;2023-05-03T13:51:09;95017.75;;;16.53;55.84
56831;BME280;42713;42.676;23.352;2023-05-03T13:53:35;95023.38;;;16.41;56.67
56831;BME280;42713;42.676;23.352;2023-05-03T13:56:01;95034.25;;;16.34;57.88
56831;BME280;42713;42.676;23.352;2023-05-03T13:58:26;95030.59;;;16.20;59.28
56831;BME280;42713;42.676;23.352;2023-05-03T14:00:52;95029.28;;;16.17;59.90
56831;BME280;42713;42.676;23.352;2023-05-03T14:03:18;95031.66;;;16.13;60.22
56831;BME280;42713;42.676;23.352;2023-05-03T14:05:43;95031.16;;;16.06;60.19
56831;BME280;42713;42.676;23.352;2023-05-03T14:08:08;95029.63;;;16.00;61.39
56831;BME280;42713;42.676;23.352;2023-05-03T14:10:34;95032.25;;;15.95;62.08
56831;BME280;42713;42.676;23.352;2023-05-03T14:13:00;95021.19;;;15.87;61.85
56831;BME280;42713;42.676;23.352;2023-05-03T14:15:25;95018.00;;;15.80;63.32
56831;BME280;42713;42.676;23.352;2023-05-03T14:17:51;95006.13;;;15.72;64.35
56831;BME280;42713;42.676;23.352;2023-05-03T14:20:16;95022.22;;;15.76;64.56
56831;BME280;42713;42.676;23.352;2023-05-03T14:22:44;95025.69;;;15.77;64.46
56831;BME280;42713;42.676;23.352;2023-05-03T14:25:09;95020.91;;;15.79;64.15
56831;BME280;42713;42.676;23.352;2023-05-03T14:27:35;95015.38;;;15.80;64.24
56831;BME280;42713;42.676;23.352;2023-05-03T14:30:01;95014.59;;;15.85;64.56
56831;BME280;42713;42.676;23.352;2023-05-03T14:32:27;95011.41;;;15.88;65.08
56831;BME280;42713;42.676;23.352;2023-05-03T14:34:52;95021.94;;;15.98;64.89
56831;BME280;42713;42.676;23.352;2023-05-03T14:37:18;95014.50;;;16.11;65.89
56831;BME280;42713;42.676;23.352;2023-05-03T14:39:43;95013.69;;;16.15;64.68
56831;BME280;42713;42.676;23.352;2023-05-03T14:42:09;95007.63;;;16.15;64.79
56831;BME280;42713;42.676;23.352;2023-05-03T14:44:35;95006.88;;;16.09;64.15
56831;BME280;42713;42.676;23.352;2023-05-03T14:47:01;95002.09;;;16.06;63.96
56831;BME280;42713;42.676;23.352;2023-05-03T14:49:27;95019.00;;;16.05;63.57
56831;BME280;42713;42.676;23.352;2023-05-03T14:51:53;95008.72;;;15.98;64.59
56831;BME280;42713;42.676;23.352;2023-05-03T14:54:19;95022.75;;;15.94;65.38
56831;BME280;42713;42.676;23.352;2023-05-03T14:56:50;95018.00;;;15.85;65.68
56831;BME280;42713;42.676;23.352;2023-05-03T14:59:15;95011.41;;;15.83;64.91
56831;BME280;42713;42.676;23.352;2023-05-03T15:01:40;95006.09;;;15.78;64.78
56831;BME280;42713;42.676;23.352;2023-05-03T15:04:13;95008.00;;;15.67;64.69
56831;BME280;42713;42.676;23.352;2023-05-03T15:06:39;95010.66;;;15.62;65.49
56831;BME280;42713;42.676;23.352;2023-05-03T15:09:07;95028.34;;;15.66;65.94
56831;BME280;42713;42.676;23.352;2023-05-03T15:11:33;95025.97;;;15.60;66.15
56831;BME280;42713;42.676;23.352;2023-05-03T15:13:59;95025.44;;;15.52;65.31
56831;BME280;42713;42.676;23.352;2023-05-03T15:16:24;95043.91;;;15.47;64.86
56831;BME280;42713;42.676;23.352;2023-05-03T15:18:51;95036.53;;;15.39;65.13
56831;BME280;42713;42.676;23.352;2023-05-03T15:21:19;95027.03;;;15.28;64.59
56831;BME280;42713;42.676;23.352;2023-05-03T15:23:45;95017.53;;;15.16;64.90
56831;BME280;42713;42.676;23.352;2023-05-03T15:26:15;95013.81;;;15.07;64.90
56831;BME280;42713;42.676;23.352;2023-05-03T15:28:40;95008.00;;;15.05;64.77
56831;BME280;42713;42.676;23.352;2023-05-03T15:31:06;95011.97;;;15.02;64.90
56831;BME280;42713;42.676;23.352;2023-05-03T15:33:42;95021.72;;;14.97;64.78
56831;BME280;42713;42.676;23.352;2023-05-03T15:36:11;95016.44;;;14.97;65.33